Terminal Aerodrome Forecast
Issued by NWS Mobile, AL

Current Version | Previous Version | Text Only | Print | Product List | Glossary On
Versions: 1 2 3 4 5 6 7 8 9 10 11 12 13 14 15 16 17 18 19 20 21 22 23 24 25 26 27 28 29
809
FTUS44 KMOB 270543
TAFPNS
TAF
KPNS 270543Z 2706/2806 22008KT P6SM VCSH SCT025 SCT045
     FM271100 22008KT 5SM SHRA SCT007 BKN025 OVC100
     FM271400 20010KT P6SM SCT025 BKN050 PROB30 2716/2719 P6SM -TSRA
      BKN025CB
     FM271900 20014G20KT P6SM SCT050
     FM280100 20006KT P6SM SKC=

USA.gov is the U.S. government's official web portal to all federal, state and local government web resources and services.